Time,TemperatureF,DewpointF,PressureIn,WindDirection,WindDirectionDegrees,WindSpeedMPH,WindSpeedGustMPH,Humidity,HourlyPrecipIn,Conditions,Clouds,dailyrainin,SoftwareType,DateUTC
2013-06-16 00:07:00,51.8,45.8,29.98,ENE,67,0.0,-999.0,80,-99.99,,,0.00,Acu-Link.com,2013-06-16 07:07:00,
2013-06-16 00:22:00,51.8,46.2,29.98,ESE,112,0.0,-999.0,81,-99.99,,,0.00,Acu-Link.com,2013-06-16 07:22:00,
2013-06-16 00:37:00,51.8,46.5,29.98,ESE,112,0.0,-999.0,82,-99.99,,,0.00,Acu-Link.com,2013-06-16 07:37:00,
2013-06-16 00:52:00,50.0,45.0,29.99,ESE,112,0.0,-999.0,83,-99.99,,,0.00,Acu-Link.com,2013-06-16 07:52:00,
2013-06-16 01:08:00,50.0,45.4,29.99,ESE,112,0.0,-999.0,84,-99.99,,,0.00,Acu-Link.com,2013-06-16 08:08:00,
2013-06-16 01:23:00,50.0,46.3,29.99,ENE,67,0.0,-999.0,87,-99.99,,,0.00,Acu-Link.com,2013-06-16 08:23:00,
2013-06-16 01:38:00,48.2,44.5,29.99,South,180,0.0,-999.0,87,-99.99,,,0.00,Acu-Link.com,2013-06-16 08:38:00,
2013-06-16 01:53:00,48.2,45.1,30.00,ENE,67,0.0,-999.0,89,-99.99,,,0.00,Acu-Link.com,2013-06-16 08:53:00,
2013-06-16 02:08:00,48.2,45.7,30.00,NE,45,0.0,-999.0,91,-99.99,,,0.00,Acu-Link.com,2013-06-16 09:08:00,
2013-06-16 02:24:00,46.4,43.6,30.00,East,90,0.0,-999.0,90,-99.99,,,0.00,Acu-Link.com,2013-06-16 09:24:00,
2013-06-16 02:39:00,46.4,43.6,30.00,SW,225,0.0,-999.0,90,-99.99,,,0.00,Acu-Link.com,2013-06-16 09:39:00,
2013-06-16 02:54:00,46.4,43.6,30.01,East,90,0.0,-999.0,90,-99.99,,,0.00,Acu-Link.com,2013-06-16 09:54:00,
2013-06-16 03:09:00,46.4,45.9,30.01,ENE,67,0.0,-999.0,98,-99.99,,,0.00,Acu-Link.com,2013-06-16 10:09:00,
2013-06-16 03:24:00,46.4,45.9,30.01,ENE,67,0.0,-999.0,98,-99.99,,,0.00,Acu-Link.com,2013-06-16 10:24:00,
2013-06-16 03:39:00,46.4,45.9,30.01,SW,225,0.0,-999.0,98,-99.99,,,0.00,Acu-Link.com,2013-06-16 10:39:00,
2013-06-16 03:54:00,46.4,45.9,30.01,SSW,202,0.0,-999.0,98,-99.99,,,0.00,Acu-Link.com,2013-06-16 10:54:00,
2013-06-16 04:09:00,44.6,44.1,30.01,SSW,202,0.0,-999.0,98,-99.99,,,0.00,Acu-Link.com,2013-06-16 11:09:00,
2013-06-16 04:24:00,44.6,44.1,30.00,East,90,0.0,-999.0,98,-99.99,,,0.00,Acu-Link.com,2013-06-16 11:24:00,
2013-06-16 04:39:00,44.6,44.1,30.01,East,90,0.0,-999.0,98,-99.99,,,0.00,Acu-Link.com,2013-06-16 11:39:00,
2013-06-16 04:54:00,44.6,44.1,30.01,ENE,67,0.0,-999.0,98,-99.99,,,0.00,Acu-Link.com,2013-06-16 11:54:00,
2013-06-16 05:09:00,44.6,44.1,30.01,ENE,67,0.0,-999.0,98,-99.99,,,0.00,Acu-Link.com,2013-06-16 12:09:00,
2013-06-16 05:24:00,44.6,44.1,30.02,ENE,67,0.0,-999.0,98,-99.99,,,0.00,Acu-Link.com,2013-06-16 12:24:00,
2013-06-16 05:39:00,46.4,45.9,30.02,ENE,67,0.0,-999.0,98,-99.99,,,0.00,Acu-Link.com,2013-06-16 12:39:00,
2013-06-16 05:54:00,46.4,45.9,30.02,ENE,67,0.0,-999.0,98,-99.99,,,0.00,Acu-Link.com,2013-06-16 12:54:00,
2013-06-16 06:09:00,46.4,45.9,30.02,SSW,202,0.0,-999.0,98,-99.99,,,0.00,Acu-Link.com,2013-06-16 13:09:00,
2013-06-16 06:25:00,46.4,45.9,30.03,SW,225,0.0,-999.0,98,-99.99,,,0.00,Acu-Link.com,2013-06-16 13:25:00,
2013-06-16 06:40:00,46.4,45.9,30.03,South,180,0.0,-999.0,98,-99.99,,,0.00,Acu-Link.com,2013-06-16 13:40:00,
2013-06-16 06:55:00,48.2,46.8,30.03,South,180,0.0,-999.0,95,-99.99,,,0.00,Acu-Link.com,2013-06-16 13:55:00,
2013-06-16 07:10:00,48.2,47.7,30.03,NNW,337,0.0,-999.0,98,-99.99,,,0.00,Acu-Link.com,2013-06-16 14:10:00,
2013-06-16 07:25:00,50.0,47.5,30.03,WNW,292,0.0,-999.0,91,-99.99,,,0.00,Acu-Link.com,2013-06-16 14:25:00,
2013-06-16 07:40:00,50.0,46.6,30.03,WNW,292,0.0,-999.0,88,-99.99,,,0.00,Acu-Link.com,2013-06-16 14:40:00,
2013-06-16 07:55:00,51.8,47.4,30.04,NW,315,2.0,-999.0,85,-99.99,,,0.00,Acu-Link.com,2013-06-16 14:55:00,
2013-06-16 08:10:00,53.6,47.6,30.04,WSW,247,1.6,-999.0,80,-99.99,,,0.00,Acu-Link.com,2013-06-16 15:10:00,
2013-06-16 08:25:00,53.6,46.9,30.03,NW,315,0.0,-999.0,78,-99.99,,,0.00,Acu-Link.com,2013-06-16 15:25:00,
2013-06-16 08:40:00,55.4,47.6,30.04,North,0,0.0,-999.0,75,-99.99,,,0.00,Acu-Link.com,2013-06-16 15:40:00,
2013-06-16 08:55:00,59.0,50.4,30.03,WNW,292,0.0,-999.0,73,-99.99,,,0.00,Acu-Link.com,2013-06-16 15:55:00,
2013-06-16 09:10:00,59.0,47.3,30.03,West,270,0.0,-999.0,65,-99.99,,,0.00,Acu-Link.com,2013-06-16 16:10:00,
2013-06-16 09:25:00,60.8,48.5,30.03,SW,225,1.6,-999.0,64,-99.99,,,0.00,Acu-Link.com,2013-06-16 16:25:00,
2013-06-16 09:40:00,60.8,49.4,30.02,South,180,2.7,-999.0,66,-99.99,,,0.00,Acu-Link.com,2013-06-16 16:40:00,
2013-06-16 09:55:00,62.6,50.2,30.03,WNW,292,0.0,-999.0,64,-99.99,,,0.00,Acu-Link.com,2013-06-16 16:55:00,
2013-06-16 10:11:00,64.4,50.2,30.03,East,90,1.6,-999.0,60,-99.99,,,0.00,Acu-Link.com,2013-06-16 17:11:00,
2013-06-16 10:26:00,68.0,51.2,30.02,SW,225,0.0,-999.0,55,-99.99,,,0.00,Acu-Link.com,2013-06-16 17:26:00,
2013-06-16 10:41:00,68.0,50.2,30.02,SW,225,2.7,-999.0,53,-99.99,,,0.00,Acu-Link.com,2013-06-16 17:41:00,
2013-06-16 10:56:00,68.0,50.2,30.02,WNW,292,4.0,-999.0,53,-99.99,,,0.00,Acu-Link.com,2013-06-16 17:56:00,
2013-06-16 11:11:00,69.8,49.2,30.02,NNW,337,2.7,-999.0,48,-99.99,,,0.00,Acu-Link.com,2013-06-16 18:11:00,
2013-06-16 11:26:00,69.8,48.7,30.01,West,270,2.7,-999.0,47,-99.99,,,0.00,Acu-Link.com,2013-06-16 18:26:00,
2013-06-16 11:41:00,71.6,46.6,30.01,West,270,1.1,-999.0,41,-99.99,,,0.00,Acu-Link.com,2013-06-16 18:41:00,
2013-06-16 11:56:00,71.6,46.0,30.00,NNE,22,2.0,-999.0,40,-99.99,,,0.00,Acu-Link.com,2013-06-16 18:56:00,
2013-06-16 12:11:00,68.0,45.3,30.00,SW,225,1.6,-999.0,44,-99.99,,,0.00,Acu-Link.com,2013-06-16 19:11:00,
2013-06-16 12:26:00,68.0,47.6,30.00,ESE,112,0.0,-999.0,48,-99.99,,,0.00,Acu-Link.com,2013-06-16 19:26:00,
2013-06-16 12:41:00,68.0,48.7,30.00,SE,135,0.0,-999.0,50,-99.99,,,0.00,Acu-Link.com,2013-06-16 19:41:00,
2013-06-16 12:57:00,71.6,49.1,30.00,South,180,2.7,-999.0,45,-99.99,,,0.00,Acu-Link.com,2013-06-16 19:57:00,
2013-06-16 13:12:00,71.6,46.0,29.99,East,90,1.6,-999.0,40,-99.99,,,0.00,Acu-Link.com,2013-06-16 20:12:00,
2013-06-16 13:27:00,69.8,44.4,29.99,NE,45,2.7,-999.0,40,-99.99,,,0.00,Acu-Link.com,2013-06-16 20:27:00,
2013-06-16 13:42:00,71.6,49.7,29.99,SE,135,3.1,-999.0,46,-99.99,,,0.00,Acu-Link.com,2013-06-16 20:42:00,
2013-06-16 13:57:00,71.6,49.1,29.99,North,0,3.6,-999.0,45,-99.99,,,0.00,Acu-Link.com,2013-06-16 20:57:00,
2013-06-16 14:12:00,73.4,48.3,29.99,NNW,337,2.7,-999.0,41,-99.99,,,0.00,Acu-Link.com,2013-06-16 21:12:00,
2013-06-16 14:27:00,73.4,45.5,29.98,NW,315,4.7,-999.0,37,-99.99,,,0.00,Acu-Link.com,2013-06-16 21:27:00,
2013-06-16 14:42:00,71.6,43.9,29.98,NE,45,2.0,-999.0,37,-99.99,,,0.00,Acu-Link.com,2013-06-16 21:42:00,
2013-06-16 14:57:00,77.0,47.2,29.98,WNW,292,2.7,-999.0,35,-99.99,,,0.00,Acu-Link.com,2013-06-16 21:57:00,
2013-06-16 15:12:00,71.6,43.9,29.98,SE,135,2.7,-999.0,37,-99.99,,,0.00,Acu-Link.com,2013-06-16 22:12:00,
2013-06-16 15:27:00,71.6,49.7,29.99,SSE,157,2.0,-999.0,46,-99.99,,,0.00,Acu-Link.com,2013-06-16 22:27:00,
2013-06-16 15:42:00,68.0,47.6,30.01,SSW,202,2.7,-999.0,48,-99.99,,,0.00,Acu-Link.com,2013-06-16 22:42:00,